Time;durP1;ratioP1;P1;durP2;ratioP2;P2;SDS_P1;SDS_P2;PMS_P1;PMS_P2;Temp;Humidity;BMP_temperature;BMP_pressure;BME280_temperature;BME280_humidity;BME280_pressure;Samples;Min_cycle;Max_cycle;Signal;HPM_P1;HPM_P2
2021/09/09 00:01:23;;;;;;;15.85;10.82;;;;;;;;;;5080811;28;20039;-73
2021/09/09 00:03:48;;;;;;;15.02;11.75;;;;;;;;;;5079812;28;20025;-73
2021/09/09 00:06:14;;;;;;;15.38;11.20;;;;;;;;;;5080088;28;20071;-73
2021/09/09 00:08:40;;;;;;;16.25;11.30;;;;;;;;;;5077390;28;20032;-73
2021/09/09 00:11:05;;;;;;;14.95;10.70;;;;;;;;;;5071745;28;20027;-73
2021/09/09 00:13:31;;;;;;;32.90;15.82;;;;;;;;;;5071705;28;20105;-73
2021/09/09 00:15:57;;;;;;;15.40;12.13;;;;;;;;;;5071918;28;20123;-73
2021/09/09 00:18:23;;;;;;;20.00;12.50;;;;;;;;;;5087279;28;20039;-73
2021/09/09 00:20:48;;;;;;;19.13;12.32;;;;;;;;;;5094771;28;20031;-73
2021/09/09 00:23:14;;;;;;;15.65;12.45;;;;;;;;;;5095262;28;20064;-73
2021/09/09 00:25:39;;;;;;;15.30;12.38;;;;;;;;;;5089553;28;20036;-73
2021/09/09 00:28:05;;;;;;;19.45;12.90;;;;;;;;;;5087139;28;20024;-73
2021/09/09 00:30:30;;;;;;;20.70;12.98;;;;;;;;;;5076330;28;20052;-73
2021/09/09 00:32:56;;;;;;;17.73;12.68;;;;;;;;;;5086600;28;20028;-73
2021/09/09 00:35:21;;;;;;;18.17;13.50;;;;;;;;;;5085270;28;20093;-73
2021/09/09 00:37:47;;;;;;;17.33;13.63;;;;;;;;;;5087603;28;20075;-73
2021/09/09 00:40:13;;;;;;;17.50;13.05;;;;;;;;;;5081222;28;20025;-73
2021/09/09 00:42:40;;;;;;;17.48;12.57;;;;;;;;;;5074428;28;20040;-73
2021/09/09 00:45:06;;;;;;;15.90;12.23;;;;;;;;;;5078917;28;20028;-73
2021/09/09 00:47:32;;;;;;;17.52;12.23;;;;;;;;;;5067582;28;20376;-73
2021/09/09 00:49:57;;;;;;;18.83;14.18;;;;;;;;;;5080323;28;20026;-73
2021/09/09 00:52:23;;;;;;;19.92;13.38;;;;;;;;;;5083002;28;20516;-73
2021/09/09 00:54:49;;;;;;;20.73;13.52;;;;;;;;;;5081029;28;20032;-73
2021/09/09 00:57:16;;;;;;;17.58;13.52;;;;;;;;;;5092627;28;20028;-73
2021/09/09 00:59:43;;;;;;;16.95;13.18;;;;;;;;;;5093611;28;20374;-73
2021/09/09 01:02:09;;;;;;;18.05;12.68;;;;;;;;;;5070556;28;20483;-73
2021/09/09 01:04:36;;;;;;;16.83;12.93;;;;;;;;;;5080891;28;20024;-73
2021/09/09 01:07:02;;;;;;;19.00;13.98;;;;;;;;;;5080527;28;20078;-73
2021/09/09 01:09:28;;;;;;;18.52;13.95;;;;;;;;;;5075280;28;20020;-73
2021/09/09 01:11:55;;;;;;;19.15;13.07;;;;;;;;;;5075872;28;20050;-73
2021/09/09 01:14:21;;;;;;;20.05;13.50;;;;;;;;;;5074300;28;20032;-74
2021/09/09 01:16:47;;;;;;;17.02;12.90;;;;;;;;;;5085931;28;20463;-73
2021/09/09 01:19:14;;;;;;;17.80;12.63;;;;;;;;;;5077807;28;20078;-73
2021/09/09 01:21:40;;;;;;;15.50;12.45;;;;;;;;;;5065659;28;20090;-74
2021/09/09 01:24:13;;;;;;;17.73;13.32;;;;;;;;;;5066266;28;20095;-74
2021/09/09 01:27:02;;;;;;;15.03;12.73;;;;;;;;;;5080095;28;20502;-74
2021/09/09 01:29:31;;;;;;;16.33;12.50;;;;;;;;;;5074419;28;20103;-74
2021/09/09 01:31:57;;;;;;;17.17;13.40;;;;;;;;;;5074750;28;20078;-74
2021/09/09 01:34:24;;;;;;;18.13;13.48;;;;;;;;;;5073158;28;20032;-74
2021/09/09 01:36:52;;;;;;;18.83;13.85;;;;;;;;;;5085056;28;20108;-74
2021/09/09 01:39:17;;;;;;;17.73;13.63;;;;;;;;;;5078217;28;20033;-73
2021/09/09 01:41:43;;;;;;;21.30;14.55;;;;;;;;;;5073267;28;20025;-74
2021/09/09 01:44:09;;;;;;;20.17;14.98;;;;;;;;;;5085532;28;20483;-74
2021/09/09 01:46:35;;;;;;;20.48;14.63;;;;;;;;;;5082886;28;20110;-74
2021/09/09 01:49:01;;;;;;;18.55;15.10;;;;;;;;;;5079319;28;20028;-74
2021/09/09 01:51:27;;;;;;;20.48;14.23;;;;;;;;;;5081663;28;20023;-74
2021/09/09 01:53:54;;;;;;;19.63;14.90;;;;;;;;;;5073694;28;20029;-74
2021/09/09 01:56:20;;;;;;;19.50;14.80;;;;;;;;;;5083729;28;20516;-74
2021/09/09 01:58:46;;;;;;;18.50;14.50;;;;;;;;;;5083810;28;20051;-74
2021/09/09 02:01:12;;;;;;;19.33;14.30;;;;;;;;;;5078676;28;20028;-74
2021/09/09 02:03:37;;;;;;;20.85;15.27;;;;;;;;;;5084477;28;20020;-74
2021/09/09 02:06:03;;;;;;;18.83;14.27;;;;;;;;;;5078140;28;20361;-74
2021/09/09 02:08:29;;;;;;;20.67;15.43;;;;;;;;;;5074483;28;20028;-74
2021/09/09 02:10:55;;;;;;;18.83;14.45;;;;;;;;;;5073977;28;20035;-74
2021/09/09 02:13:20;;;;;;;24.90;15.85;;;;;;;;;;5081309;28;20125;-74
2021/09/09 02:15:46;;;;;;;18.17;14.68;;;;;;;;;;5086827;28;20495;-74
2021/09/09 02:18:11;;;;;;;21.20;15.02;;;;;;;;;;5087727;28;20112;-74
2021/09/09 02:20:37;;;;;;;18.10;13.30;;;;;;;;;;5091777;28;20024;-74
2021/09/09 02:23:03;;;;;;;18.13;13.73;;;;;;;;;;5081775;28;20047;-74
2021/09/09 02:25:28;;;;;;;16.52;13.55;;;;;;;;;;5076289;28;20093;-74
2021/09/09 02:27:54;;;;;;;19.80;14.57;;;;;;;;;;5081855;28;20115;-74
2021/09/09 02:30:21;;;;;;;18.58;13.88;;;;;;;;;;5081151;28;20051;-74
2021/09/09 02:32:46;;;;;;;18.70;14.50;;;;;;;;;;5072043;28;20499;-74
2021/09/09 02:35:12;;;;;;;18.05;14.25;;;;;;;;;;5054951;28;20067;-74
2021/09/09 02:37:39;;;;;;;18.35;14.15;;;;;;;;;;5091014;28;20115;-74
2021/09/09 02:40:07;;;;;;;20.08;14.18;;;;;;;;;;5072318;28;20070;-74
2021/09/09 02:42:33;;;;;;;19.20;13.95;;;;;;;;;;5079368;28;20082;-74
2021/09/09 02:44:59;;;;;;;17.92;14.75;;;;;;;;;;5083044;28;20032;-74
2021/09/09 02:47:24;;;;;;;18.40;13.98;;;;;;;;;;5087623;28;20403;-74
2021/09/09 02:49:50;;;;;;;19.48;14.35;;;;;;;;;;5080471;28;20053;-74
2021/09/09 02:52:16;;;;;;;18.60;14.48;;;;;;;;;;5083216;28;20027;-74
2021/09/09 02:54:41;;;;;;;17.65;14.55;;;;;;;;;;5086911;28;20028;-74
2021/09/09 02:57:07;;;;;;;19.80;15.00;;;;;;;;;;5082794;28;20380;-74
2021/09/09 02:59:32;;;;;;;19.60;15.65;;;;;;;;;;5072936;28;20115;-74
2021/09/09 03:01:59;;;;;;;20.25;15.57;;;;;;;;;;5081300;28;20066;-74
2021/09/09 03:04:25;;;;;;;19.73;15.18;;;;;;;;;;5090284;28;20463;-74
2021/09/09 03:06:50;;;;;;;20.67;15.23;;;;;;;;;;5090485;28;20028;-74
2021/09/09 03:09:16;;;;;;;20.70;15.82;;;;;;;;;;5090894;28;20109;-74
2021/09/09 03:11:42;;;;;;;19.42;15.35;;;;;;;;;;5082233;28;20024;-74
2021/09/09 03:14:07;;;;;;;18.63;14.85;;;;;;;;;;5089693;28;20090;-74
2021/09/09 03:16:33;;;;;;;20.17;15.30;;;;;;;;;;5082782;28;20456;-74
2021/09/09 03:18:58;;;;;;;21.20;15.63;;;;;;;;;;5084650;28;20035;-74
2021/09/09 03:21:24;;;;;;;21.23;15.40;;;;;;;;;;5076681;28;20454;-74
2021/09/09 03:23:51;;;;;;;17.73;14.98;;;;;;;;;;5071920;28;20458;-74
2021/09/09 03:26:16;;;;;;;20.02;14.93;;;;;;;;;;5090733;28;20028;-74
2021/09/09 03:28:42;;;;;;;23.02;15.68;;;;;;;;;;5081330;28;20051;-74
2021/09/09 03:31:07;;;;;;;21.45;15.85;;;;;;;;;;5085966;28;20031;-74
2021/09/09 03:33:33;;;;;;;19.73;15.27;;;;;;;;;;5072063;28;20028;-74
2021/09/09 03:35:58;;;;;;;19.45;14.90;;;;;;;;;;5088270;28;20035;-74
2021/09/09 03:38:24;;;;;;;21.92;15.45;;;;;;;;;;5077231;28;20061;-74
2021/09/09 03:40:49;;;;;;;20.92;16.17;;;;;;;;;;5084362;28;20016;-73
2021/09/09 03:43:15;;;;;;;22.88;15.85;;;;;;;;;;5090735;28;20028;-73
2021/09/09 03:45:41;;;;;;;22.17;16.05;;;;;;;;;;5081287;28;20025;-73
2021/09/09 03:48:06;;;;;;;19.88;15.63;;;;;;;;;;5083012;28;20024;-73
2021/09/09 03:50:32;;;;;;;20.75;15.55;;;;;;;;;;5090237;28;20483;-73
2021/09/09 03:52:57;;;;;;;22.17;16.33;;;;;;;;;;5082510;28;20081;-73
2021/09/09 03:55:23;;;;;;;22.88;16.92;;;;;;;;;;5080409;28;20035;-73
2021/09/09 03:57:49;;;;;;;26.98;16.77;;;;;;;;;;5085647;28;20118;-73
2021/09/09 04:00:17;;;;;;;23.98;16.27;;;;;;;;;;5088140;28;20381;-73
2021/09/09 04:02:42;;;;;;;24.67;16.10;;;;;;;;;;5078796;28;20024;-73
2021/09/09 04:05:08;;;;;;;23.10;15.82;;;;;;;;;;5088132;28;20042;-73
2021/09/09 04:07:34;;;;;;;20.80;16.30;;;;;;;;;;5085972;28;20342;-73
2021/09/09 04:09:59;;;;;;;20.02;15.10;;;;;;;;;;5090908;28;20119;-73
2021/09/09 04:12:25;;;;;;;23.40;16.92;;;;;;;;;;5081862;28;20028;-74
2021/09/09 04:14:51;;;;;;;23.58;16.38;;;;;;;;;;5083162;28;20032;-74
2021/09/09 04:17:17;;;;;;;21.30;15.63;;;;;;;;;;5082443;28;20455;-73
2021/09/09 04:19:42;;;;;;;23.20;16.25;;;;;;;;;;5086875;28;20016;-73
2021/09/09 04:22:09;;;;;;;22.35;16.58;;;;;;;;;;5083216;28;20111;-74
2021/09/09 04:24:35;;;;;;;23.85;16.65;;;;;;;;;;5078109;28;20032;-74
2021/09/09 04:27:02;;;;;;;22.27;17.27;;;;;;;;;;5087246;28;20098;-74
2021/09/09 04:29:28;;;;;;;23.27;16.35;;;;;;;;;;5081228;28;20025;-74
2021/09/09 04:31:53;;;;;;;22.02;15.63;;;;;;;;;;5074850;28;20039;-74
2021/09/09 04:34:19;;;;;;;22.83;16.40;;;;;;;;;;5074347;28;20028;-74
2021/09/09 04:36:45;;;;;;;19.70;14.68;;;;;;;;;;5077326;28;20111;-74
2021/09/09 04:39:10;;;;;;;21.73;16.05;;;;;;;;;;5075037;28;20029;-74
2021/09/09 04:41:37;;;;;;;19.17;15.70;;;;;;;;;;5075083;28;20353;-74
2021/09/09 04:44:04;;;;;;;20.88;15.57;;;;;;;;;;5092793;28;20035;-74
2021/09/09 04:46:30;;;;;;;24.15;16.02;;;;;;;;;;5094416;28;20030;-74
2021/09/09 04:48:56;;;;;;;18.92;14.95;;;;;;;;;;5094649;28;20052;-74
2021/09/09 04:51:22;;;;;;;22.55;14.93;;;;;;;;;;5085441;28;20067;-74
2021/09/09 04:53:48;;;;;;;23.17;15.00;;;;;;;;;;5094582;28;20024;-74
2021/09/09 04:56:13;;;;;;;20.63;15.05;;;;;;;;;;5084241;28;20024;-74
2021/09/09 04:58:39;;;;;;;19.42;15.43;;;;;;;;;;5074388;28;20439;-74
2021/09/09 05:01:05;;;;;;;20.45;14.30;;;;;;;;;;5086920;28;20032;-74
2021/09/09 05:03:31;;;;;;;22.15;15.32;;;;;;;;;;5083799;28;20033;-74
2021/09/09 05:05:57;;;;;;;20.45;14.65;;;;;;;;;;5073334;28;20370;-74
2021/09/09 05:08:22;;;;;;;17.33;14.57;;;;;;;;;;5063710;28;20025;-74
2021/09/09 05:10:48;;;;;;;19.73;14.90;;;;;;;;;;5092329;28;20514;-74
2021/09/09 05:13:13;;;;;;;20.52;15.18;;;;;;;;;;5088324;28;20096;-74
2021/09/09 05:15:39;;;;;;;19.05;13.50;;;;;;;;;;5073706;28;20025;-74
2021/09/09 05:18:04;;;;;;;20.10;14.63;;;;;;;;;;5074037;28;20024;-74
2021/09/09 05:20:30;;;;;;;15.65;12.57;;;;;;;;;;5074373;28;20029;-74
2021/09/09 05:22:55;;;;;;;17.95;13.77;;;;;;;;;;5074695;28;20028;-74
2021/09/09 05:25:21;;;;;;;17.15;13.40;;;;;;;;;;5079945;28;20125;-74
2021/09/09 05:27:46;;;;;;;18.52;13.05;;;;;;;;;;5094391;28;20035;-74
2021/09/09 05:30:12;;;;;;;16.63;12.82;;;;;;;;;;5094850;28;20024;-74
2021/09/09 05:32:38;;;;;;;16.35;13.73;;;;;;;;;;5090964;28;20029;-74
2021/09/09 05:35:05;;;;;;;17.25;12.88;;;;;;;;;;5082333;28;20526;-74
2021/09/09 05:37:30;;;;;;;16.65;12.98;;;;;;;;;;5078000;28;20064;-74
2021/09/09 05:39:56;;;;;;;17.90;13.45;;;;;;;;;;5075225;28;20067;-74
2021/09/09 05:42:21;;;;;;;16.27;12.60;;;;;;;;;;5085829;28;20095;-74
2021/09/09 05:44:47;;;;;;;17.45;12.38;;;;;;;;;;5069473;28;20067;-74
2021/09/09 05:47:13;;;;;;;17.70;12.63;;;;;;;;;;5069710;28;20097;-74
2021/09/09 05:49:38;;;;;;;16.10;11.98;;;;;;;;;;5079219;28;20111;-73
2021/09/09 05:52:05;;;;;;;15.95;11.55;;;;;;;;;;5083603;28;20093;-74
2021/09/09 05:54:32;;;;;;;17.73;12.70;;;;;;;;;;5080097;28;20039;-74
2021/09/09 05:56:58;;;;;;;16.15;11.23;;;;;;;;;;5077572;28;20501;-74
2021/09/09 05:59:23;;;;;;;13.00;10.48;;;;;;;;;;5076659;28;20076;-74
2021/09/09 06:01:50;;;;;;;14.68;10.25;;;;;;;;;;5082573;28;20025;-74
2021/09/09 06:04:17;;;;;;;12.43;9.60;;;;;;;;;;5084840;28;20029;-75
2021/09/09 06:06:43;;;;;;;13.32;10.40;;;;;;;;;;5078424;28;20463;-74
2021/09/09 06:09:09;;;;;;;12.75;9.73;;;;;;;;;;5073379;28;20029;-74
2021/09/09 06:11:35;;;;;;;12.52;9.68;;;;;;;;;;5083289;28;20055;-74
2021/09/09 06:14:01;;;;;;;11.48;8.77;;;;;;;;;;5093652;28;20107;-74
2021/09/09 06:16:27;;;;;;;11.55;9.00;;;;;;;;;;5075436;28;20439;-74
2021/09/09 06:18:52;;;;;;;11.23;9.05;;;;;;;;;;5093353;28;20433;-74
2021/09/09 06:21:18;;;;;;;10.80;7.97;;;;;;;;;;5083211;28;20090;-74
2021/09/09 06:23:43;;;;;;;13.25;8.25;;;;;;;;;;5078952;28;20052;-74
2021/09/09 06:26:09;;;;;;;9.63;7.85;;;;;;;;;;5084729;28;20439;-74
2021/09/09 06:28:34;;;;;;;11.05;7.88;;;;;;;;;;5074466;28;20031;-75
2021/09/09 06:31:00;;;;;;;9.55;7.38;;;;;;;;;;5077876;28;20055;-74
2021/09/09 06:33:26;;;;;;;10.50;7.32;;;;;;;;;;5083405;28;20115;-74
2021/09/09 06:35:51;;;;;;;13.35;7.93;;;;;;;;;;5082206;28;20114;-74
2021/09/09 06:38:17;;;;;;;10.05;7.43;;;;;;;;;;5082936;28;20074;-74
2021/09/09 06:40:43;;;;;;;9.80;8.00;;;;;;;;;;5072962;28;20017;-74
2021/09/09 06:43:09;;;;;;;10.82;8.13;;;;;;;;;;5076327;28;20472;-74
2021/09/09 06:45:35;;;;;;;10.35;7.72;;;;;;;;;;5075928;28;20035;-74
2021/09/09 06:48:01;;;;;;;9.13;6.95;;;;;;;;;;5075510;28;20115;-73
2021/09/09 06:50:26;;;;;;;11.80;7.40;;;;;;;;;;5077206;28;20017;-73
2021/09/09 06:52:52;;;;;;;10.38;7.45;;;;;;;;;;5073916;28;20439;-73
2021/09/09 06:55:18;;;;;;;10.70;7.20;;;;;;;;;;5085589;28;20035;-73
2021/09/09 06:57:43;;;;;;;12.00;7.38;;;;;;;;;;5083286;28;20077;-75
2021/09/09 07:00:09;;;;;;;9.43;5.97;;;;;;;;;;5080873;28;20024;-74
2021/09/09 07:02:35;;;;;;;7.30;5.60;;;;;;;;;;5090334;28;20020;-77
2021/09/09 07:05:00;;;;;;;7.30;5.75;;;;;;;;;;5082664;28;20051;-75
2021/09/09 07:07:27;;;;;;;6.40;4.97;;;;;;;;;;5075959;28;20031;-76
2021/09/09 07:09:53;;;;;;;5.88;4.60;;;;;;;;;;5083677;28;20032;-77
2021/09/09 07:12:18;;;;;;;5.93;4.47;;;;;;;;;;5084202;28;20388;-75
2021/09/09 07:14:44;;;;;;;5.93;4.40;;;;;;;;;;5092560;28;20051;-76
2021/09/09 07:17:10;;;;;;;6.88;4.05;;;;;;;;;;5086116;28;20103;-76
2021/09/09 07:19:35;;;;;;;5.15;3.67;;;;;;;;;;5077869;28;20029;-74
2021/09/09 07:22:01;;;;;;;6.15;3.60;;;;;;;;;;5084039;28;20088;-75
2021/09/09 07:24:26;;;;;;;6.18;3.17;;;;;;;;;;5084190;28;20119;-74
2021/09/09 07:26:52;;;;;;;5.43;3.15;;;;;;;;;;5089233;28;20085;-75
2021/09/09 07:29:18;;;;;;;3.70;2.50;;;;;;;;;;5091226;28;20039;-74
2021/09/09 07:31:44;;;;;;;4.80;3.00;;;;;;;;;;5077836;28;20028;-74
2021/09/09 07:34:10;;;;;;;3.83;2.67;;;;;;;;;;5084071;28;20024;-75
2021/09/09 07:36:37;;;;;;;5.18;2.40;;;;;;;;;;5083814;28;20539;-74
2021/09/09 07:39:04;;;;;;;4.05;2.47;;;;;;;;;;5091248;28;20024;-76
2021/09/09 07:41:30;;;;;;;3.80;2.35;;;;;;;;;;5089260;28;20035;-74
2021/09/09 07:43:56;;;;;;;3.47;2.50;;;;;;;;;;5078770;28;20052;-74
2021/09/09 07:46:22;;;;;;;3.75;2.60;;;;;;;;;;5086021;28;20059;-74
2021/09/09 07:48:50;;;;;;;4.30;2.47;;;;;;;;;;5086096;28;20024;-73
2021/09/09 07:51:18;;;;;;;2.67;2.00;;;;;;;;;;5076446;28;20095;-73
2021/09/09 07:53:44;;;;;;;3.28;1.95;;;;;;;;;;5068636;28;20040;-73
2021/09/09 07:56:10;;;;;;;2.50;1.48;;;;;;;;;;5083485;28;20028;-74
2021/09/09 07:58:36;;;;;;;3.90;1.70;;;;;;;;;;5084377;28;20040;-74
2021/09/09 08:01:02;;;;;;;3.63;1.98;;;;;;;;;;5085462;28;20032;-73
2021/09/09 08:03:28;;;;;;;3.40;1.80;;;;;;;;;;5094366;28;20444;-74
2021/09/09 08:05:54;;;;;;;2.47;1.65;;;;;;;;;;5086633;28;20107;-72
2021/09/09 08:08:20;;;;;;;3.88;1.67;;;;;;;;;;5066400;28;20025;-73
2021/09/09 08:10:45;;;;;;;2.78;1.70;;;;;;;;;;5089702;28;20017;-73
2021/09/09 08:13:11;;;;;;;4.45;2.20;;;;;;;;;;5087363;28;20036;-71
2021/09/09 08:15:37;;;;;;;2.45;1.80;;;;;;;;;;5088101;28;20482;-76
2021/09/09 08:18:03;;;;;;;4.05;2.40;;;;;;;;;;5094163;28;20036;-74
2021/09/09 08:20:29;;;;;;;5.90;2.40;;;;;;;;;;5093442;28;20040;-73
2021/09/09 08:22:55;;;;;;;3.13;2.30;;;;;;;;;;5083565;28;20078;-73
2021/09/09 08:25:22;;;;;;;3.95;2.33;;;;;;;;;;5077237;28;20059;-74
2021/09/09 08:27:48;;;;;;;4.50;2.17;;;;;;;;;;5077517;28;20023;-73
2021/09/09 08:30:13;;;;;;;2.75;1.67;;;;;;;;;;5075196;28;20056;-74
2021/09/09 08:32:40;;;;;;;2.85;1.73;;;;;;;;;;5078473;28;20067;-74
2021/09/09 08:35:06;;;;;;;2.50;1.55;;;;;;;;;;5077924;28;20027;-72
2021/09/09 08:37:32;;;;;;;3.00;1.98;;;;;;;;;;5065675;28;20035;-75
2021/09/09 08:39:58;;;;;;;2.97;1.80;;;;;;;;;;5076373;28;20039;-75
2021/09/09 08:42:24;;;;;;;3.50;1.88;;;;;;;;;;5075470;28;20026;-73
2021/09/09 08:44:50;;;;;;;2.80;1.60;;;;;;;;;;5083657;28;20517;-75
2021/09/09 08:47:16;;;;;;;3.20;1.88;;;;;;;;;;5077011;28;20085;-74
2021/09/09 08:49:42;;;;;;;3.30;1.80;;;;;;;;;;5084809;28;20046;-74
2021/09/09 08:52:08;;;;;;;3.17;1.90;;;;;;;;;;5081044;28;20099;-72
2021/09/09 08:54:34;;;;;;;3.33;2.10;;;;;;;;;;5082159;28;20035;-73
2021/09/09 08:57:00;;;;;;;3.35;2.13;;;;;;;;;;5079151;28;20498;-75
2021/09/09 08:59:26;;;;;;;3.42;2.08;;;;;;;;;;5079063;28;20049;-75
2021/09/09 09:02:01;;;;;;;4.47;2.20;;;;;;;;;;5088218;28;20028;-75
2021/09/09 09:04:29;;;;;;;4.20;2.65;;;;;;;;;;5070958;28;20025;-72
2021/09/09 09:06:55;;;;;;;3.63;2.58;;;;;;;;;;5083661;28;20582;-73
2021/09/09 09:09:24;;;;;;;4.20;2.83;;;;;;;;;;5086067;28;20114;-75
2021/09/09 09:11:50;;;;;;;5.75;3.72;;;;;;;;;;5092734;28;20157;-75
2021/09/09 09:14:22;;;;;;;5.07;3.15;;;;;;;;;;5082943;28;20043;-75
2021/09/09 09:16:47;;;;;;;5.38;3.60;;;;;;;;;;5074598;28;20024;-74
2021/09/09 09:19:15;;;;;;;5.25;3.50;;;;;;;;;;5071992;28;20024;-74
2021/09/09 09:21:44;;;;;;;4.75;3.47;;;;;;;;;;5061085;28;20070;-74
2021/09/09 09:24:16;;;;;;;5.80;3.35;;;;;;;;;;5071517;28;20174;-74
2021/09/09 09:27:05;;;;;;;4.75;3.35;;;;;;;;;;5078845;28;20025;-74
2021/09/09 09:29:31;;;;;;;4.28;2.97;;;;;;;;;;5071423;28;20035;-74
2021/09/09 09:32:27;;;;;;;6.20;3.53;;;;;;;;;;5070819;28;20375;-75
2021/09/09 09:35:26;;;;;;;6.82;4.57;;;;;;;;;;5058352;28;20037;-73
2021/09/09 09:38:08;;;;;;;6.43;4.45;;;;;;;;;;5070311;28;20024;-74
2021/09/09 09:40:41;;;;;;;7.43;5.22;;;;;;;;;;5083740;28;20028;-72
2021/09/09 09:43:09;;;;;;;10.02;6.70;;;;;;;;;;5053664;28;20029;-72
2021/09/09 09:45:35;;;;;;;12.07;7.38;;;;;;;;;;5059775;28;20051;-75
2021/09/09 09:48:01;;;;;;;11.15;7.68;;;;;;;;;;5080349;28;20036;-77
2021/09/09 09:50:37;;;;;;;11.98;8.20;;;;;;;;;;5088779;28;20031;-75
2021/09/09 09:53:22;;;;;;;13.60;8.02;;;;;;;;;;5075235;28;20486;-74
2021/09/09 09:55:49;;;;;;;15.18;8.95;;;;;;;;;;5075802;28;20027;-74
2021/09/09 09:58:15;;;;;;;13.57;9.25;;;;;;;;;;5083023;28;20541;-75
2021/09/09 10:00:41;;;;;;;14.70;9.65;;;;;;;;;;5079698;28;20027;-77
2021/09/09 10:03:07;;;;;;;13.35;10.00;;;;;;;;;;5074354;28;20024;-74
2021/09/09 10:05:36;;;;;;;15.65;11.00;;;;;;;;;;5074009;28;20503;-75
2021/09/09 10:08:02;;;;;;;16.60;11.00;;;;;;;;;;5077749;28;20029;-76
2021/09/09 10:10:28;;;;;;;14.40;10.57;;;;;;;;;;5074647;28;20063;-76
2021/09/09 10:12:54;;;;;;;14.63;10.27;;;;;;;;;;5074171;28;20039;-76
2021/09/09 10:15:21;;;;;;;11.32;8.82;;;;;;;;;;5073398;28;20112;-77
2021/09/09 10:17:49;;;;;;;11.45;8.50;;;;;;;;;;5075123;28;20082;-75
2021/09/09 10:20:27;;;;;;;12.27;8.07;;;;;;;;;;5071606;28;20033;-75
2021/09/09 10:23:20;;;;;;;11.35;7.53;;;;;;;;;;5070400;28;20059;-74
2021/09/09 10:25:54;;;;;;;11.90;6.65;;;;;;;;;;5052676;28;20040;-75
2021/09/09 10:28:49;;;;;;;8.70;4.82;;;;;;;;;;5078193;28;20472;-76
2021/09/09 10:31:18;;;;;;;6.50;4.43;;;;;;;;;;5073981;28;20023;-75
2021/09/09 10:33:52;;;;;;;5.32;3.60;;;;;;;;;;5079178;28;20035;-76
2021/09/09 10:36:44;;;;;;;;;;;;;;;;;;5077942;28;20055;-76
2021/09/09 10:39:35;;;;;;;4.50;3.30;;;;;;;;;;5051756;28;19917;-77
2021/09/09 10:42:38;;;;;;;5.75;3.22;;;;;;;;;;5062130;28;20075;-74
2021/09/09 10:45:11;;;;;;;4.03;2.78;;;;;;;;;;5059017;28;20035;-77
2021/09/09 10:47:50;;;;;;;4.07;2.45;;;;;;;;;;5078663;28;20024;-76
2021/09/09 10:50:15;;;;;;;6.68;2.50;;;;;;;;;;5081332;28;20777;-76
2021/09/09 10:53:00;;;;;;;3.50;2.38;;;;;;;;;;5090995;28;20034;-75
2021/09/09 10:55:29;;;;;;;3.42;2.28;;;;;;;;;;5086979;28;20415;-76
2021/09/09 10:58:15;;;;;;;4.18;2.55;;;;;;;;;;5067981;28;20045;-75
2021/09/09 11:01:07;;;;;;;4.30;2.47;;;;;;;;;;5078564;28;20028;-73
2021/09/09 11:03:42;;;;;;;3.90;2.63;;;;;;;;;;5085162;28;20032;-74
2021/09/09 11:06:15;;;;;;;4.20;2.35;;;;;;;;;;5091309;28;20357;-74
2021/09/09 11:08:43;;;;;;;3.75;2.63;;;;;;;;;;5071077;28;20066;-75
2021/09/09 11:11:24;;;;;;;2.88;2.03;;;;;;;;;;5076850;28;20038;-74
2021/09/09 11:14:06;;;;;;;5.05;2.75;;;;;;;;;;5092175;28;20493;-77
2021/09/09 11:16:34;;;;;;;5.32;2.80;;;;;;;;;;5092265;28;20020;-76
2021/09/09 11:19:01;;;;;;;4.85;2.90;;;;;;;;;;5074428;28;20108;-75
2021/09/09 11:21:31;;;;;;;7.25;2.88;;;;;;;;;;5076163;28;20028;-74
2021/09/09 11:24:03;;;;;;;5.10;3.00;;;;;;;;;;5092444;28;20039;-76
2021/09/09 11:26:29;;;;;;;6.20;3.25;;;;;;;;;;5088956;28;20063;-73
2021/09/09 11:28:56;;;;;;;3.67;2.58;;;;;;;;;;5084242;28;20020;-73
2021/09/09 11:31:24;;;;;;;4.25;2.92;;;;;;;;;;5072922;28;20024;-74
2021/09/09 11:34:04;;;;;;;5.75;3.08;;;;;;;;;;5080183;28;20483;-75
2021/09/09 11:36:44;;;;;;;5.72;3.30;;;;;;;;;;5081391;28;20369;-74
2021/09/09 11:39:15;;;;;;;8.75;3.80;;;;;;;;;;5091168;28;20036;-74
2021/09/09 11:41:42;;;;;;;6.25;3.45;;;;;;;;;;5090761;28;20024;-74
2021/09/09 11:44:23;;;;;;;4.97;3.00;;;;;;;;;;5083604;28;20032;-73
2021/09/09 11:46:49;;;;;;;5.80;3.20;;;;;;;;;;5076431;28;20481;-74
2021/09/09 11:49:16;;;;;;;5.65;3.53;;;;;;;;;;5070147;28;20089;-74
2021/09/09 11:51:50;;;;;;;5.97;3.17;;;;;;;;;;5058114;28;20092;-74
2021/09/09 11:54:26;;;;;;;4.65;2.80;;;;;;;;;;5069981;28;20032;-74
2021/09/09 11:57:02;;;;;;;4.90;3.17;;;;;;;;;;5077041;28;20486;-74
2021/09/09 11:59:27;;;;;;;4.68;3.03;;;;;;;;;;5092223;28;20158;-73
2021/09/09 12:02:06;;;;;;;4.93;3.40;;;;;;;;;;5089002;28;20177;-75
2021/09/09 12:04:35;;;;;;;4.75;3.47;;;;;;;;;;5073220;28;20028;-73
2021/09/09 12:07:01;;;;;;;6.45;3.80;;;;;;;;;;5052838;28;20016;-75
2021/09/09 12:09:29;;;;;;;6.72;4.32;;;;;;;;;;5078939;28;20028;-73
2021/09/09 12:12:27;;;;;;;7.85;4.97;;;;;;;;;;5089211;28;20026;-74
2021/09/09 12:15:01;;;;;;;7.10;4.40;;;;;;;;;;5059587;28;20032;-76
2021/09/09 12:17:28;;;;;;;6.80;3.70;;;;;;;;;;5087612;28;20035;-74
2021/09/09 12:19:57;;;;;;;7.07;5.20;;;;;;;;;;5086105;28;20460;-73
2021/09/09 12:22:46;;;;;;;9.55;4.95;;;;;;;;;;5094512;28;20044;-75
2021/09/09 12:25:27;;;;;;;7.60;4.70;;;;;;;;;;5072912;28;20039;-74
2021/09/09 12:27:52;;;;;;;7.32;5.07;;;;;;;;;;5081471;28;20047;-73
2021/09/09 12:30:21;;;;;;;8.90;5.93;;;;;;;;;;5085434;28;20621;-73
2021/09/09 12:32:47;;;;;;;8.05;6.65;;;;;;;;;;5069878;28;20254;-73
2021/09/09 12:35:14;;;;;;;10.73;6.85;;;;;;;;;;5094451;28;20020;-75
2021/09/09 12:37:40;;;;;;;11.50;7.13;;;;;;;;;;5095397;28;20024;-75
2021/09/09 12:40:06;;;;;;;7.93;6.65;;;;;;;;;;5092484;28;20028;-75
2021/09/09 12:42:31;;;;;;;9.70;6.68;;;;;;;;;;5094549;28;20020;-74
2021/09/09 12:44:57;;;;;;;9.02;6.50;;;;;;;;;;5093998;28;20457;-77
2021/09/09 12:47:23;;;;;;;12.73;7.18;;;;;;;;;;5077270;28;20086;-75
2021/09/09 12:49:48;;;;;;;9.93;6.85;;;;;;;;;;5079227;28;20024;-74
2021/09/09 12:52:14;;;;;;;9.43;6.90;;;;;;;;;;5078158;28;20070;-74
2021/09/09 12:54:47;;;;;;;10.82;7.32;;;;;;;;;;5070703;28;20119;-75
2021/09/09 12:57:27;;;;;;;10.60;8.03;;;;;;;;;;5075582;28;20030;-76
2021/09/09 12:59:52;;;;;;;9.43;7.47;;;;;;;;;;5073627;28;20497;-76
2021/09/09 13:02:20;;;;;;;10.82;7.50;;;;;;;;;;5072682;28;20060;-75
2021/09/09 13:04:45;;;;;;;9.82;7.85;;;;;;;;;;5073819;28;20111;-76
2021/09/09 13:07:11;;;;;;;9.43;7.10;;;;;;;;;;5073644;28;20108;-76
2021/09/09 13:09:36;;;;;;;12.20;8.30;;;;;;;;;;5074749;28;20024;-74
2021/09/09 13:12:02;;;;;;;10.35;7.38;;;;;;;;;;5074911;28;20406;-73
2021/09/09 13:14:27;;;;;;;9.90;7.85;;;;;;;;;;5075253;28;20025;-75
2021/09/09 13:16:54;;;;;;;11.40;7.50;;;;;;;;;;5074684;28;20024;-75
2021/09/09 13:19:19;;;;;;;10.80;8.07;;;;;;;;;;5084805;28;20502;-75
2021/09/09 13:21:46;;;;;;;10.25;7.45;;;;;;;;;;5073665;28;20025;-75
2021/09/09 13:24:11;;;;;;;10.07;7.18;;;;;;;;;;5073720;28;20025;-73
2021/09/09 13:26:37;;;;;;;11.73;7.50;;;;;;;;;;5073582;28;20017;-75
2021/09/09 13:29:02;;;;;;;9.73;7.88;;;;;;;;;;5074253;28;20035;-76
2021/09/09 13:31:28;;;;;;;11.40;7.72;;;;;;;;;;5075152;28;20047;-75
2021/09/09 13:33:58;;;;;;;9.48;7.10;;;;;;;;;;5056006;28;20024;-76
2021/09/09 13:36:23;;;;;;;10.77;7.00;;;;;;;;;;5073422;28;20227;-76
2021/09/09 13:38:49;;;;;;;12.05;8.02;;;;;;;;;;5073613;28;20149;-74
2021/09/09 13:41:14;;;;;;;9.25;7.57;;;;;;;;;;5073733;28;20112;-74
2021/09/09 13:43:40;;;;;;;11.85;7.35;;;;;;;;;;5074076;28;20031;-75
2021/09/09 13:46:05;;;;;;;9.50;7.65;;;;;;;;;;5073959;28;20020;-74
2021/09/09 13:48:31;;;;;;;11.45;7.47;;;;;;;;;;5073903;28;20384;-77
2021/09/09 13:50:57;;;;;;;12.95;7.25;;;;;;;;;;5073963;28;20028;-75
2021/09/09 13:53:25;;;;;;;12.48;7.70;;;;;;;;;;5073339;28;20779;-76
2021/09/09 13:55:50;;;;;;;11.63;7.95;;;;;;;;;;5073896;28;20472;-75
2021/09/09 13:58:16;;;;;;;11.00;7.70;;;;;;;;;;5073111;28;20040;-75
2021/09/09 14:00:41;;;;;;;10.45;7.78;;;;;;;;;;5077491;28;20059;-76
2021/09/09 14:03:07;;;;;;;11.63;7.40;;;;;;;;;;5073828;28;20048;-75
2021/09/09 14:05:32;;;;;;;9.93;7.50;;;;;;;;;;5074075;28;20472;-76
2021/09/09 14:07:58;;;;;;;9.95;7.13;;;;;;;;;;5073351;28;20085;-76
2021/09/09 14:10:24;;;;;;;11.20;7.38;;;;;;;;;;5076555;28;20447;-76
2021/09/09 14:12:49;;;;;;;8.30;6.82;;;;;;;;;;5073535;28;20032;-76
2021/09/09 14:15:16;;;;;;;10.50;7.45;;;;;;;;;;5057620;28;20029;-77
2021/09/09 14:17:42;;;;;;;9.60;7.38;;;;;;;;;;5085690;28;20027;-76
2021/09/09 14:20:08;;;;;;;9.10;7.05;;;;;;;;;;5082252;28;20449;-74
2021/09/09 14:22:35;;;;;;;8.98;7.25;;;;;;;;;;5078309;28;20034;-74
2021/09/09 14:25:01;;;;;;;8.90;6.57;;;;;;;;;;5057490;28;20032;-76
2021/09/09 14:27:28;;;;;;;8.18;6.82;;;;;;;;;;5072036;28;20032;-76
2021/09/09 14:29:53;;;;;;;10.77;7.13;;;;;;;;;;5073036;28;20028;-76
2021/09/09 14:32:19;;;;;;;11.20;6.70;;;;;;;;;;5075867;28;20594;-76